createdAt,value
2018-12-04T00:00:38.083Z,91.03
2018-12-04T00:05:48.958Z,89.45
2018-12-04T00:08:25.436Z,89.49
2018-12-04T00:10:57.714Z,89.05
2018-12-04T00:13:31.527Z,88.76
2018-12-04T00:18:36.962Z,87.72
2018-12-04T00:21:08.942Z,87.67
2018-12-04T00:23:43.248Z,87.10
2018-12-04T00:28:48.950Z,86.68
2018-12-04T00:31:20.737Z,86.81
2018-12-04T00:33:55.168Z,86.46
2018-12-04T00:39:04.145Z,85.72
2018-12-04T00:44:13.837Z,84.52
2018-12-04T00:46:46.554Z,84.68
2018-12-04T00:49:18.443Z,84.59
2018-12-04T00:51:52.757Z,84.64
2018-12-04T00:56:56.384Z,84.81
2018-12-04T00:59:28.386Z,84.85
2018-12-04T01:02:06.281Z,85.04
2018-12-04T01:04:40.642Z,85.06
2018-12-04T01:07:13.233Z,85.21
2018-12-04T01:09:45.013Z,85.21
2018-12-04T01:12:19.492Z,85.10
2018-12-04T01:17:22.115Z,85.32
2018-12-04T01:19:54.118Z,86.62
2018-12-04T01:25:24.737Z,87.93
2018-12-04T01:28:02.600Z,88.52
2018-12-04T01:30:35.006Z,89.02
2018-12-04T01:33:07.569Z,89.92
2018-12-04T01:35:42.047Z,90.61
2018-12-04T01:40:45.905Z,91.99
2018-12-04T01:43:17.647Z,92.77
2018-12-04T01:45:50.265Z,93.56
2018-12-04T01:48:27.972Z,94.06
2018-12-04T01:51:01.754Z,94.28
2018-12-04T01:56:08.996Z,94.58
2018-12-04T01:58:43.050Z,94.74
2018-12-04T02:01:15.453Z,95.11
2018-12-04T02:03:50.320Z,95.29
2018-12-04T02:06:23.997Z,95.44
2018-12-04T02:11:29.322Z,95.92
2018-12-04T02:14:01.878Z,96.10
2018-12-04T02:16:33.753Z,96.12
2018-12-04T02:19:07.250Z,96.05
2018-12-04T02:24:13.579Z,96.03
2018-12-04T02:26:46.165Z,95.94
2018-12-04T02:29:18.799Z,95.79
2018-12-04T02:31:51.323Z,95.35
2018-12-04T02:34:25.980Z,94.87
2018-12-04T02:36:59.756Z,94.43
2018-12-04T02:42:05.542Z,94.36
2018-12-04T02:44:38.341Z,94.28
2018-12-04T02:47:10.070Z,94.59
2018-12-04T02:49:42.658Z,94.75
2018-12-04T02:52:17.192Z,94.87
2018-12-04T02:57:21.914Z,94.84
2018-12-04T02:59:53.787Z,94.92
2018-12-04T03:02:26.565Z,94.88
2018-12-04T03:05:00.751Z,95.01
2018-12-04T03:10:06.573Z,95.37
2018-12-04T03:12:39.140Z,95.55
2018-12-04T03:15:10.984Z,95.66
2018-12-04T03:17:45.493Z,95.88
2018-12-04T03:22:54.499Z,93.36
2018-12-04T03:25:28.271Z,94.17
2018-12-04T03:29:15.165Z,93.97
2018-12-04T03:31:48.282Z,94.71
2018-12-04T03:34:21.353Z,94.88
2018-12-04T03:36:57.136Z,94.51
2018-12-04T03:39:28.596Z,94.93
2018-12-04T03:42:03.770Z,95.31
2018-12-04T03:44:36.935Z,95.83
2018-12-04T03:47:09.830Z,96.08
2018-12-04T03:49:43.510Z,95.95
2018-12-04T03:52:14.888Z,96.33
2018-12-04T03:54:48.202Z,96.79
2018-12-04T03:57:19.489Z,96.91
2018-12-04T03:59:52.584Z,96.67
2018-12-04T04:02:23.779Z,97.76
2018-12-04T04:04:54.402Z,97.83
2018-12-04T04:07:27.458Z,97.73
2018-12-04T04:09:58.680Z,96.37
2018-12-04T04:12:32.017Z,94.94
2018-12-04T04:15:03.488Z,94.62
2018-12-04T04:17:34.311Z,93.46
2018-12-04T04:20:07.878Z,92.79
2018-12-04T04:22:41.844Z,92.69
2018-12-04T04:25:15.072Z,92.87
2018-12-04T04:27:48.788Z,93.03
2018-12-04T04:30:19.909Z,93.04
2018-12-04T04:32:56.187Z,92.19
2018-12-04T04:35:27.578Z,90.69
2018-12-04T04:38:06.374Z,88.25
2018-12-04T04:40:46.058Z,87.09
2018-12-04T04:43:25.054Z,87.16
2018-12-04T04:46:08.580Z,86.73
2018-12-04T04:48:50.616Z,86.48
2018-12-04T04:51:29.293Z,85.80
2018-12-04T04:54:09.052Z,86.67
2018-12-04T04:56:47.792Z,86.38
2018-12-04T04:59:26.757Z,87.54
2018-12-04T05:02:05.599Z,86.95
2018-12-04T05:04:47.222Z,87.17
2018-12-04T05:07:25.283Z,88.19
2018-12-04T05:10:05.575Z,88.10
2018-12-04T05:12:46.399Z,87.53
2018-12-04T05:15:25.580Z,86.83
2018-12-04T05:18:03.695Z,86.63
2018-12-04T05:20:43.080Z,86.80
2018-12-04T05:23:22.915Z,86.92
2018-12-04T05:26:00.450Z,87.66
2018-12-04T05:28:38.265Z,87.50
2018-12-04T05:31:17.992Z,87.28
2018-12-04T05:33:56.729Z,87.38
2018-12-04T05:36:36.351Z,88.58
2018-12-04T05:39:16.111Z,87.80
2018-12-04T05:41:55.781Z,88.28
2018-12-04T05:44:35.439Z,88.31
2018-12-04T05:47:15.025Z,87.86
2018-12-04T05:49:54.284Z,87.80
2018-12-04T05:52:34.162Z,87.64
2018-12-04T05:55:14.096Z,87.67
2018-12-04T05:57:54.111Z,87.73
2018-12-04T06:00:33.936Z,87.25
2018-12-04T06:03:14.246Z,87.48
2018-12-04T06:05:54.372Z,86.88
2018-12-04T06:08:33.818Z,86.88
2018-12-04T06:11:13.689Z,87.43
2018-12-04T06:13:54.193Z,87.34
2018-12-04T06:16:33.780Z,87.09
2018-12-04T06:19:13.695Z,88.45
2018-12-04T06:21:53.743Z,88.33
2018-12-04T06:24:33.300Z,88.80
2018-12-04T06:27:12.554Z,87.14
2018-12-04T06:32:23.950Z,87.60
2018-12-04T06:35:04.977Z,87.68
2018-12-04T06:37:45.118Z,87.97
2018-12-04T06:40:24.485Z,88.39
2018-12-04T06:43:04.929Z,88.61
2018-12-04T06:45:44.444Z,90.06
2018-12-04T06:48:24.258Z,90.94
2018-12-04T06:51:05.029Z,91.26
2018-12-04T06:53:44.152Z,91.97
2018-12-04T06:56:24.086Z,91.89
2018-12-04T06:59:04.800Z,91.83
2018-12-04T07:01:44.854Z,91.23
2018-12-04T07:04:24.498Z,91.14
2018-12-04T07:07:03.392Z,90.66
2018-12-04T07:09:43.078Z,90.17
2018-12-04T07:12:22.327Z,89.98
2018-12-04T07:15:03.077Z,89.33
2018-12-04T07:17:43.607Z,89.19
2018-12-04T07:20:23.293Z,89.62
2018-12-04T07:23:03.134Z,89.65
2018-12-04T07:25:42.914Z,88.34
2018-12-04T07:28:23.711Z,88.68
2018-12-04T07:31:03.733Z,87.87
2018-12-04T07:33:43.664Z,88.29
2018-12-04T07:36:25.047Z,87.89
2018-12-04T07:41:48.254Z,88.19
2018-12-04T07:44:28.088Z,87.52
2018-12-04T07:47:08.969Z,86.91
2018-12-04T07:49:48.912Z,86.69
2018-12-04T07:52:28.249Z,85.93
2018-12-04T07:55:08.497Z,86.00
2018-12-04T07:57:48.365Z,85.17
2018-12-04T08:00:27.929Z,85.28
2018-12-04T08:03:08.605Z,84.12
2018-12-04T08:05:49.499Z,84.08
2018-12-04T08:08:29.371Z,83.28
2018-12-04T08:11:09.457Z,83.03
2018-12-04T08:13:49.525Z,82.96
2018-12-04T08:16:30.053Z,82.37
2018-12-04T08:19:11.787Z,82.64
2018-12-04T08:21:52.284Z,83.25
2018-12-04T08:24:31.977Z,82.38
2018-12-04T08:27:12.206Z,83.28
2018-12-04T08:29:52.261Z,81.98
2018-12-04T08:32:33.828Z,82.95
2018-12-04T08:35:14.523Z,83.59
2018-12-04T08:38:02.446Z,83.32
2018-12-04T08:40:42.710Z,83.30
2018-12-04T08:43:22.652Z,83.22
2018-12-04T08:46:03.347Z,83.04
2018-12-04T08:48:44.114Z,83.32
2018-12-04T08:51:24.738Z,83.62
2018-12-04T08:54:04.003Z,83.33
2018-12-04T08:56:45.128Z,82.59
2018-12-04T08:59:25.714Z,82.32
2018-12-04T09:02:06.725Z,82.84
2018-12-04T09:04:46.942Z,81.55
2018-12-04T09:07:30.872Z,81.93
2018-12-04T09:10:12.888Z,81.18
2018-12-04T09:12:54.287Z,81.00
2018-12-04T09:15:35.927Z,81.89
2018-12-04T09:18:17.764Z,82.31
2018-12-04T09:20:58.733Z,82.03
2018-12-04T09:23:39.721Z,81.75
2018-12-04T09:26:20.829Z,80.80
2018-12-04T09:29:02.310Z,81.18
2018-12-04T09:31:43.961Z,80.66
2018-12-04T09:34:29.804Z,80.28
2018-12-04T09:37:09.741Z,79.49
2018-12-04T09:39:50.514Z,79.27
2018-12-04T09:42:35.273Z,79.58
2018-12-04T09:45:16.613Z,78.28
2018-12-04T09:47:58.559Z,77.41
2018-12-04T09:50:39.665Z,74.84
2018-12-04T09:53:25.088Z,73.52
2018-12-04T09:56:03.146Z,73.57
2018-12-04T09:58:43.982Z,74.37
2018-12-04T10:01:24.814Z,74.53
2018-12-04T10:04:05.064Z,71.76
2018-12-04T10:06:44.825Z,70.95
2018-12-04T10:09:25.416Z,71.22
2018-12-04T10:12:06.665Z,69.57
2018-12-04T10:14:47.730Z,68.61
2018-12-04T10:17:28.966Z,67.77
2018-12-04T10:20:09.277Z,68.46
2018-12-04T10:22:51.580Z,67.91
2018-12-04T10:25:32.153Z,67.43
2018-12-04T10:28:12.910Z,65.49
2018-12-04T10:30:58.845Z,65.27
2018-12-04T10:33:42.563Z,66.46
2018-12-04T10:36:23.256Z,64.53
2018-12-04T10:39:03.957Z,66.47
2018-12-04T10:41:44.297Z,66.25
2018-12-04T10:44:26.729Z,66.91
2018-12-04T10:47:07.406Z,67.17
2018-12-04T10:49:48.070Z,67.19
2018-12-04T10:52:30.491Z,68.97
2018-12-04T10:55:13.292Z,69.31
2018-12-04T10:57:55.705Z,67.19
2018-12-04T11:00:43.728Z,66.88
2018-12-04T11:03:39.786Z,68.07
2018-12-04T11:06:20.194Z,67.63
2018-12-04T11:09:02.053Z,66.88
2018-12-04T11:14:37.532Z,67.65
2018-12-04T11:17:18.024Z,68.67
2018-12-04T11:19:58.313Z,69.61
2018-12-04T11:22:38.125Z,69.22
2018-12-04T11:25:18.263Z,68.44
2018-12-04T11:27:59.530Z,68.32
2018-12-04T11:30:39.792Z,67.21
2018-12-04T11:33:19.902Z,67.53
2018-12-04T11:36:00.918Z,69.49
2018-12-04T11:38:42.468Z,70.87
2018-12-04T11:46:24.842Z,70.28
2018-12-04T11:49:05.217Z,70.75
2018-12-04T11:51:45.814Z,71.38
2018-12-04T11:54:27.115Z,70.42
2018-12-04T11:57:08.380Z,70.91
2018-12-04T11:59:48.333Z,72.27
2018-12-04T12:02:29.608Z,72.77
2018-12-04T12:05:09.621Z,72.54
2018-12-04T12:07:50.091Z,71.44
2018-12-04T12:10:30.792Z,71.20
2018-12-04T12:13:10.410Z,70.71
2018-12-04T12:15:50.077Z,70.78
2018-12-04T12:18:30.482Z,70.00
2018-12-04T12:21:10.589Z,68.91
2018-12-04T12:23:51.111Z,69.54
2018-12-04T12:26:31.552Z,69.94
2018-12-04T12:29:12.312Z,68.32
2018-12-04T12:31:52.784Z,66.53
2018-12-04T12:34:32.911Z,65.98
2018-12-04T12:37:13.836Z,67.28
2018-12-04T12:39:54.911Z,66.89
2018-12-04T12:42:35.528Z,67.50
2018-12-04T12:45:17.246Z,68.07
2018-12-04T12:47:59.335Z,67.82
2018-12-04T12:50:40.227Z,67.92
2018-12-04T12:53:21.694Z,68.69
2018-12-04T12:56:02.924Z,69.06
2018-12-04T12:58:44.409Z,68.28
2018-12-04T13:01:25.031Z,68.04
2018-12-04T13:04:05.675Z,66.40
2018-12-04T13:06:47.562Z,65.36
2018-12-04T13:09:29.448Z,65.23
2018-12-04T13:12:10.833Z,65.16
2018-12-04T13:14:52.474Z,65.39
2018-12-04T13:17:33.987Z,65.31
2018-12-04T13:20:15.046Z,65.42
2018-12-04T13:22:56.576Z,66.01
2018-12-04T13:25:39.356Z,66.17
2018-12-04T13:28:22.003Z,67.35
2018-12-04T13:31:03.150Z,67.92
2018-12-04T13:33:43.691Z,68.45
2018-12-04T13:36:25.497Z,68.86
2018-12-04T13:39:07.004Z,69.34
2018-12-04T13:41:48.201Z,68.00
2018-12-04T13:44:30.135Z,68.87
2018-12-04T13:47:11.615Z,67.13
2018-12-04T13:54:58.495Z,64.17
2018-12-04T13:57:39.441Z,64.48
2018-12-04T14:00:19.598Z,65.63
2018-12-04T14:03:00.243Z,66.36
2018-12-04T14:05:39.221Z,65.83
2018-12-04T14:08:19.928Z,67.58
2018-12-04T14:11:00.488Z,72.01
2018-12-04T14:13:40.713Z,73.80
2018-12-04T14:16:20.480Z,75.27
2018-12-04T14:19:02.145Z,75.67
2018-12-04T14:21:42.941Z,74.73
2018-12-04T14:24:23.555Z,73.58
2018-12-04T14:27:03.550Z,73.25
2018-12-04T14:29:48.021Z,71.39
2018-12-04T14:32:29.016Z,71.96
2018-12-04T14:35:09.845Z,71.67
2018-12-04T14:37:50.802Z,71.33
2018-12-04T14:40:31.028Z,70.74
2018-12-04T14:43:12.322Z,70.53
2018-12-04T14:45:52.740Z,71.04
2018-12-04T14:48:32.987Z,71.31
2018-12-04T14:51:13.579Z,72.43
2018-12-04T14:53:54.255Z,72.57
2018-12-04T15:01:38.080Z,73.50
2018-12-04T15:04:18.194Z,73.39
2018-12-04T15:06:58.843Z,73.20
2018-12-04T15:09:39.777Z,72.38
2018-12-04T15:12:20.193Z,72.08
2018-12-04T15:15:01.066Z,72.66
2018-12-04T15:17:41.904Z,72.55
2018-12-04T15:20:22.389Z,72.35
2018-12-04T15:23:04.933Z,72.61
2018-12-04T15:25:45.526Z,73.43
2018-12-04T15:28:26.105Z,73.74
2018-12-04T15:31:06.846Z,74.32
2018-12-04T15:33:46.927Z,74.93
2018-12-04T15:36:26.008Z,74.36
2018-12-04T15:39:06.680Z,74.49
2018-12-04T15:41:47.170Z,74.37
2018-12-04T15:44:27.572Z,75.35
2018-12-04T15:47:09.025Z,75.61
2018-12-04T15:49:49.185Z,76.30
2018-12-04T15:52:29.873Z,76.15
2018-12-04T15:55:09.700Z,76.56
2018-12-04T15:57:50.823Z,76.41
2018-12-04T16:00:31.214Z,77.13
2018-12-04T16:03:10.584Z,76.96
2018-12-04T16:05:50.710Z,77.85
2018-12-04T16:08:31.363Z,78.38
2018-12-04T16:11:11.133Z,78.20
2018-12-04T16:13:51.313Z,78.37
2018-12-04T16:16:31.058Z,78.97
2018-12-04T16:19:11.262Z,79.17
2018-12-04T16:21:51.190Z,79.62
2018-12-04T16:24:30.969Z,79.51
2018-12-04T16:27:11.418Z,80.31
2018-12-04T16:29:51.419Z,80.54
2018-12-04T16:32:32.043Z,80.74
2018-12-04T16:35:14.041Z,80.47
2018-12-04T16:37:54.711Z,80.28
2018-12-04T16:40:35.178Z,80.36
2018-12-04T16:43:17.859Z,79.14
2018-12-04T16:45:57.367Z,78.99
2018-12-04T16:48:41.319Z,79.10
2018-12-04T16:51:20.831Z,78.73
2018-12-04T16:54:01.321Z,78.87
2018-12-04T16:56:41.676Z,78.84
2018-12-04T16:59:27.923Z,79.29
2018-12-04T17:02:07.513Z,79.42
2018-12-04T17:04:48.236Z,79.69
2018-12-04T17:10:40.103Z,78.83
2018-12-04T17:13:25.772Z,78.50
2018-12-04T17:16:05.062Z,78.41
2018-12-04T17:18:46.152Z,79.17
2018-12-04T17:21:25.181Z,79.14
2018-12-04T17:24:05.735Z,79.39
2018-12-04T17:26:45.826Z,79.10
2018-12-04T17:29:26.294Z,79.06
2018-12-04T17:32:06.184Z,79.63
2018-12-04T17:34:46.148Z,79.45
2018-12-04T17:37:26.654Z,80.34
2018-12-04T17:40:07.551Z,81.16
2018-12-04T17:42:50.345Z,81.33
2018-12-04T17:45:31.166Z,81.48
2018-12-04T17:48:13.147Z,81.69
2018-12-04T17:50:56.053Z,81.55
2018-12-04T17:53:35.704Z,82.02
2018-12-04T17:56:15.183Z,81.93
2018-12-04T17:59:01.214Z,82.36
2018-12-04T18:01:40.868Z,82.50
2018-12-04T18:04:19.057Z,83.53
2018-12-04T18:06:57.879Z,83.28
2018-12-04T18:09:38.243Z,83.13
2018-12-04T18:12:17.651Z,83.48
2018-12-04T18:14:58.164Z,83.35
2018-12-04T18:17:39.412Z,83.10
2018-12-04T18:20:19.804Z,83.44
2018-12-04T18:23:00.227Z,83.57
2018-12-04T18:25:44.061Z,83.77
2018-12-04T18:28:24.661Z,83.62
2018-12-04T18:31:05.135Z,84.06
2018-12-04T18:33:44.789Z,84.00
2018-12-04T18:36:23.936Z,84.24
2018-12-04T18:39:04.764Z,84.21
2018-12-04T18:41:44.537Z,84.50
2018-12-04T18:44:23.821Z,85.50
2018-12-04T18:47:03.324Z,86.11
2018-12-04T18:49:43.929Z,86.18
2018-12-04T18:52:23.931Z,85.94
2018-12-04T18:55:04.194Z,86.30
2018-12-04T18:57:44.576Z,86.57
2018-12-04T19:00:24.540Z,87.27
2018-12-04T19:03:03.629Z,86.85
2018-12-04T19:05:40.748Z,87.92
2018-12-04T19:08:24.549Z,87.70
2018-12-04T19:11:03.041Z,87.49
2018-12-04T19:13:42.904Z,87.75
2018-12-04T19:16:21.837Z,88.12
2018-12-04T19:19:02.639Z,87.83
2018-12-04T19:21:41.774Z,88.52
2018-12-04T19:24:21.777Z,88.38
2018-12-04T19:27:02.547Z,88.69
2018-12-04T19:29:44.573Z,89.29
2018-12-04T19:32:22.556Z,89.35
2018-12-04T19:34:55.782Z,88.99
2018-12-04T19:37:41.235Z,88.70
2018-12-04T19:40:14.689Z,89.42
2018-12-04T19:42:48.246Z,89.42
2018-12-04T19:45:21.948Z,89.24
2018-12-04T19:47:59.681Z,88.95
2018-12-04T19:50:35.915Z,88.63
2018-12-04T19:53:07.244Z,89.10
2018-12-04T19:55:40.763Z,88.39
2018-12-04T19:58:13.347Z,87.93
2018-12-04T20:00:45.192Z,87.84
2018-12-04T20:03:20.511Z,87.59
2018-12-04T20:05:54.729Z,88.08
2018-12-04T20:08:32.411Z,87.83
2018-12-04T20:11:06.446Z,87.43
2018-12-04T20:13:40.032Z,87.86
2018-12-04T20:16:14.001Z,88.03
2018-12-04T20:18:45.145Z,87.78
2018-12-04T20:21:18.318Z,88.29
2018-12-04T20:23:51.819Z,87.79
2018-12-04T20:26:30.041Z,88.51
2018-12-04T20:29:01.633Z,88.62
2018-12-04T20:31:35.495Z,88.33
2018-12-04T20:34:11.738Z,88.39
2018-12-04T20:36:44.402Z,88.19
2018-12-04T20:39:17.798Z,87.91
2018-12-04T20:41:49.709Z,87.94
2018-12-04T20:44:21.513Z,87.63
2018-12-04T20:46:55.057Z,88.02
2018-12-04T20:49:26.324Z,88.17
2018-12-04T20:52:10.865Z,88.66
2018-12-04T20:54:43.065Z,88.84
2018-12-04T20:57:17.396Z,88.04
2018-12-04T20:59:50.646Z,88.09
2018-12-04T21:02:22.195Z,88.45
2018-12-04T21:04:56.765Z,88.73
2018-12-04T21:07:32.394Z,89.04
2018-12-04T21:10:05.011Z,89.06
2018-12-04T21:12:36.740Z,89.37
2018-12-04T21:15:14.079Z,89.43
2018-12-04T21:17:47.809Z,89.55
2018-12-04T21:20:24.355Z,89.30
2018-12-04T21:23:02.288Z,89.24
2018-12-04T21:25:35.902Z,89.36
2018-12-04T21:28:20.631Z,89.19
2018-12-04T21:31:06.561Z,89.41
2018-12-04T21:33:44.370Z,90.18
2018-12-04T21:36:28.474Z,89.90
2018-12-04T21:39:14.795Z,89.73
2018-12-04T21:41:52.314Z,89.41
2018-12-04T21:44:31.192Z,89.65
2018-12-04T21:47:12.235Z,89.26
2018-12-04T21:49:45.588Z,89.16
2018-12-04T21:52:17.302Z,89.39
2018-12-04T21:54:50.482Z,89.64
2018-12-04T21:57:21.975Z,89.72
2018-12-04T21:59:53.077Z,89.85
2018-12-04T22:02:26.319Z,89.30
2018-12-04T22:05:00.154Z,89.82
2018-12-04T22:07:31.749Z,89.67
2018-12-04T22:10:02.866Z,89.54
2018-12-04T22:12:33.945Z,89.65
2018-12-04T22:15:07.490Z,90.02
2018-12-04T22:17:40.975Z,90.21
2018-12-04T22:20:12.331Z,89.82
2018-12-04T22:22:45.766Z,90.02
2018-12-04T22:25:19.480Z,90.42
2018-12-04T22:27:51.127Z,90.08
2018-12-04T22:30:24.334Z,89.74
2018-12-04T22:32:56.161Z,89.91
2018-12-04T22:35:27.651Z,90.13
2018-12-04T22:38:01.074Z,90.74
2018-12-04T22:40:32.409Z,91.05
2018-12-04T22:43:06.013Z,90.60
2018-12-04T22:45:37.385Z,90.92
2018-12-04T22:48:14.822Z,91.00
2018-12-04T22:50:47.891Z,90.28
2018-12-04T22:53:19.287Z,90.21
2018-12-04T22:55:52.664Z,90.24
2018-12-04T22:58:23.978Z,90.24
2018-12-04T23:00:57.419Z,90.42
2018-12-04T23:03:28.665Z,89.92
2018-12-04T23:06:02.782Z,90.15
2018-12-04T23:08:37.985Z,89.94
2018-12-04T23:11:11.353Z,90.46
2018-12-04T23:13:42.029Z,90.59
2018-12-04T23:16:15.354Z,90.57
2018-12-04T23:18:46.895Z,90.46
2018-12-04T23:21:17.832Z,90.49
2018-12-04T23:23:51.139Z,90.64
2018-12-04T23:26:24.222Z,90.89
2018-12-04T23:28:55.551Z,91.30
2018-12-04T23:31:28.700Z,91.83
2018-12-04T23:34:00.109Z,92.03
2018-12-04T23:36:33.098Z,91.85
2018-12-04T23:39:07.341Z,91.82
2018-12-04T23:41:42.221Z,92.14
2018-12-04T23:44:20.205Z,92.21
2018-12-04T23:46:53.321Z,92.32
2018-12-04T23:49:27.163Z,91.90
2018-12-04T23:51:58.610Z,92.28
2018-12-04T23:54:32.005Z,92.50
2018-12-04T23:57:03.145Z,91.88
2018-12-04T23:59:36.326Z,91.85
